Webcam Flughafen St.Gallen-Altenrhein

Live-Bilder und Zeitraffer LSZR / ACH.

 

Live aus Altenrhein
LIVE
LSZR 201420Z VRB02KT 6000 FEW007 BKN060 M00/M02 Q1013 NOSIG RMK G
Zeitraffer heute
2019-01-20 00:14:30
LSZR 192250Z AUTO 10001KT 5000 NSC M05/M06 Q1013
Zeitraffer gestern
2019-01-19 00:14:58
LSZR 182250Z AUTO 11004KT CAVOK M02/M06 Q1016
Zeitraffer vor 3 Tagen
2019-01-17 00:14:37
LSZR 162250Z AUTO VRB03KT 9999 NCD M00/M01 Q1011